Time;durP1;ratioP1;P1;durP2;ratioP2;P2;SDS_P1;SDS_P2;PMS_P1;PMS_P2;Temp;Humidity;BMP_temperature;BMP_pressure;BME280_temperature;BME280_humidity;BME280_pressure;Samples;Min_cycle;Max_cycle;Signal;HPM_P1;HPM_P2
2022/08/03 00:01:52;;;;;;;1.42;1.33;;;23.50;83.90;;;;;;4979320;28;20054;-80
2022/08/03 00:04:17;;;;;;;3.28;1.20;;;23.50;83.90;;;;;;4991480;28;20126;-80
2022/08/03 00:06:43;;;;;;;1.25;1.15;;;23.50;84.00;;;;;;4993489;28;20478;-81
2022/08/03 00:09:09;;;;;;;1.27;1.00;;;23.50;84.50;;;;;;4979419;28;20022;-81
2022/08/03 00:11:36;;;;;;;1.05;0.95;;;23.50;83.80;;;;;;4994664;28;20026;-81
2022/08/03 00:14:05;;;;;;;1.30;1.10;;;23.50;84.00;;;;;;4990536;28;20034;-81
2022/08/03 00:16:31;;;;;;;1.80;1.13;;;23.50;83.90;;;;;;4995212;28;20042;-81
2022/08/03 00:18:57;;;;;;;1.20;0.90;;;23.50;83.60;;;;;;4998559;28;20046;-81
2022/08/03 00:21:23;;;;;;;1.33;1.20;;;23.50;83.50;;;;;;4963993;28;20045;-80
2022/08/03 00:23:49;;;;;;;1.15;1.05;;;23.50;83.20;;;;;;4994751;28;20058;-81
2022/08/03 00:26:14;;;;;;;1.38;1.00;;;23.50;83.40;;;;;;4991188;28;20113;-81
2022/08/03 00:28:40;;;;;;;0.90;0.90;;;23.40;83.20;;;;;;4995283;28;20026;-80
2022/08/03 00:31:07;;;;;;;1.40;0.98;;;23.40;82.90;;;;;;4995654;28;20411;-81
2022/08/03 00:33:33;;;;;;;1.42;0.80;;;23.40;82.80;;;;;;4997077;28;20356;-81
2022/08/03 00:35:59;;;;;;;1.23;1.08;;;23.40;82.80;;;;;;4994208;28;20503;-81
2022/08/03 00:38:25;;;;;;;1.20;1.10;;;23.40;82.90;;;;;;4994684;28;20030;-80
2022/08/03 00:40:50;;;;;;;1.48;1.20;;;23.40;82.80;;;;;;4992842;28;20037;-81
2022/08/03 00:43:16;;;;;;;1.30;1.20;;;23.40;82.80;;;;;;4994305;28;20483;-81
2022/08/03 00:45:43;;;;;;;0.82;0.80;;;23.40;82.70;;;;;;5001749;28;20068;-81
2022/08/03 00:48:11;;;;;;;1.13;1.00;;;23.40;82.50;;;;;;4994362;28;20085;-81
2022/08/03 00:50:41;;;;;;;4.07;0.80;;;23.40;82.50;;;;;;4998454;28;20045;-80
2022/08/03 00:53:16;;;;;;;1.00;0.90;;;23.40;82.40;;;;;;5001551;28;20023;-80
2022/08/03 00:55:42;;;;;;;1.15;1.05;;;23.40;82.40;;;;;;4995665;28;20018;-81
2022/08/03 00:58:10;;;;;;;1.15;1.05;;;23.40;82.30;;;;;;4996449;28;20048;-81
2022/08/03 01:00:38;;;;;;;1.33;0.98;;;23.40;82.30;;;;;;5007781;28;20022;-81
2022/08/03 01:03:06;;;;;;;0.82;0.82;;;23.40;82.20;;;;;;4995096;28;20026;-81
2022/08/03 01:05:55;;;;;;;1.40;1.30;;;23.40;81.70;;;;;;5002785;28;20018;-81
2022/08/03 01:08:39;;;;;;;0.70;0.70;;;23.40;82.00;;;;;;4992349;28;20475;-81
2022/08/03 01:11:22;;;;;;;1.00;1.00;;;23.30;81.40;;;;;;4998887;28;20118;-81
2022/08/03 01:13:48;;;;;;;;;;;23.30;81.70;;;;;;4989972;28;20046;-80
2022/08/03 01:16:14;;;;;;;1.20;1.10;;;23.40;81.30;;;;;;4991261;28;19920;-80
2022/08/03 01:18:56;;;;;;;1.30;1.20;;;23.30;81.10;;;;;;4989779;28;20022;-80
2022/08/03 01:21:32;;;;;;;2.45;0.93;;;23.30;81.30;;;;;;4993039;28;20026;-80
2022/08/03 01:24:04;;;;;;;0.93;0.93;;;23.30;81.30;;;;;;4991534;28;20034;-80
2022/08/03 01:26:42;;;;;;;0.98;0.90;;;23.30;81.30;;;;;;4995694;28;20027;-80
2022/08/03 01:29:55;;;;;;;0.93;0.82;;;23.30;81.30;;;;;;4992476;28;20450;-80
2022/08/03 01:32:30;;;;;;;1.73;1.15;;;23.30;81.20;;;;;;4974769;28;20027;-80
2022/08/03 01:35:11;;;;;;;1.13;1.02;;;23.30;81.00;;;;;;4974166;28;20027;-80
2022/08/03 01:37:55;;;;;;;1.02;0.93;;;23.30;80.90;;;;;;4987921;28;20039;-80
2022/08/03 01:40:23;;;;;;;1.08;0.93;;;23.30;80.90;;;;;;4987163;28;20076;-80
2022/08/03 01:42:50;;;;;;;1.02;0.93;;;23.30;81.00;;;;;;4990856;28;20503;-80
2022/08/03 01:45:18;;;;;;;1.08;0.95;;;23.30;80.70;;;;;;4998707;28;20027;-80
2022/08/03 01:47:45;;;;;;;0.93;0.82;;;23.30;80.90;;;;;;4988133;28;20084;-80
2022/08/03 01:50:13;;;;;;;1.08;0.95;;;23.30;80.50;;;;;;4990450;28;20014;-80
2022/08/03 01:52:41;;;;;;;1.20;1.10;;;23.30;80.50;;;;;;4992619;28;20050;-80
2022/08/03 01:55:08;;;;;;;1.50;1.40;;;23.30;80.50;;;;;;4977743;28;20053;-80
2022/08/03 01:57:37;;;;;;;1.05;0.93;;;23.30;80.40;;;;;;5004269;28;20030;-80
2022/08/03 02:00:05;;;;;;;1.67;1.58;;;23.20;80.20;;;;;;4997791;28;20089;-80
2022/08/03 02:02:32;;;;;;;1.40;1.20;;;23.20;80.30;;;;;;5005461;28;20058;-80
2022/08/03 02:05:00;;;;;;;1.13;0.90;;;23.20;80.30;;;;;;4989540;28;20027;-80
2022/08/03 02:07:28;;;;;;;1.48;1.25;;;23.30;80.00;;;;;;4997603;28;20061;-80
2022/08/03 02:09:55;;;;;;;1.20;1.10;;;23.20;79.80;;;;;;4991761;28;20092;-80
2022/08/03 02:12:24;;;;;;;3.28;1.10;;;23.20;79.70;;;;;;4991637;28;20112;-80
2022/08/03 02:14:52;;;;;;;0.90;0.80;;;23.20;79.70;;;;;;4996470;28;20379;-80
2022/08/03 02:17:20;;;;;;;1.10;1.00;;;23.20;79.60;;;;;;4997193;28;20041;-80
2022/08/03 02:19:47;;;;;;;1.10;1.00;;;23.20;79.70;;;;;;4991630;28;20487;-80
2022/08/03 02:22:14;;;;;;;0.90;0.90;;;23.20;79.30;;;;;;4995773;28;20061;-80
2022/08/03 02:24:40;;;;;;;0.88;0.80;;;23.20;79.60;;;;;;4997514;28;20073;-80
2022/08/03 02:27:15;;;;;;;1.23;1.10;;;23.20;79.10;;;;;;4990342;28;20030;-80
2022/08/03 02:29:45;;;;;;;1.10;1.00;;;23.20;79.10;;;;;;4985166;28;20486;-80
2022/08/03 02:32:13;;;;;;;1.65;1.45;;;23.20;79.20;;;;;;4997895;28;20073;-80
2022/08/03 02:34:41;;;;;;;1.08;0.98;;;23.20;79.10;;;;;;4992510;28;20044;-80
2022/08/03 02:37:09;;;;;;;1.10;1.00;;;23.20;79.20;;;;;;4992268;28;20030;-80
2022/08/03 02:39:35;;;;;;;1.35;0.98;;;23.20;79.10;;;;;;4994558;28;20360;-80
2022/08/03 02:42:01;;;;;;;1.15;1.05;;;23.20;78.70;;;;;;4992006;28;20031;-80
2022/08/03 02:44:31;;;;;;;1.40;1.30;;;23.20;78.90;;;;;;4992649;28;20022;-80
2022/08/03 02:47:02;;;;;;;1.88;1.02;;;23.20;78.80;;;;;;4980693;28;20118;-80
2022/08/03 02:49:29;;;;;;;1.17;0.90;;;23.20;78.90;;;;;;4995133;28;20030;-79
2022/08/03 02:51:57;;;;;;;1.25;1.13;;;23.20;78.60;;;;;;4998770;28;20026;-81
2022/08/03 02:54:25;;;;;;;1.02;0.93;;;23.20;78.60;;;;;;4996353;28;20110;-80
2022/08/03 02:56:53;;;;;;;1.13;0.90;;;23.20;78.60;;;;;;5000643;28;20033;-80
2022/08/03 02:59:22;;;;;;;1.30;1.13;;;23.10;78.40;;;;;;4993670;28;20101;-80
2022/08/03 03:01:48;;;;;;;1.00;0.90;;;23.10;78.40;;;;;;4989221;28;20026;-80
2022/08/03 03:04:15;;;;;;;1.70;1.10;;;23.10;78.40;;;;;;4989939;28;20633;-80
2022/08/03 03:06:41;;;;;;;0.82;0.82;;;23.10;78.30;;;;;;4995568;28;20054;-80
2022/08/03 03:09:08;;;;;;;1.30;1.20;;;23.10;78.50;;;;;;4998760;28;20018;-80
2022/08/03 03:11:37;;;;;;;1.10;1.00;;;23.10;78.20;;;;;;4989115;28;20053;-80
2022/08/03 03:14:03;;;;;;;1.08;0.98;;;23.10;78.20;;;;;;4984328;28;20022;-80
2022/08/03 03:16:31;;;;;;;0.82;0.82;;;23.10;78.20;;;;;;4990023;28;20088;-80
2022/08/03 03:18:58;;;;;;;1.15;1.05;;;23.10;78.00;;;;;;4993866;28;20069;-80
2022/08/03 03:21:25;;;;;;;0.93;0.90;;;23.10;78.00;;;;;;4989811;28;20030;-80
2022/08/03 03:23:52;;;;;;;1.05;0.95;;;23.10;78.20;;;;;;4990116;28;20041;-80
2022/08/03 03:26:18;;;;;;;1.30;1.20;;;23.10;78.10;;;;;;4978756;28;20035;-80
2022/08/03 03:28:45;;;;;;;0.90;0.88;;;23.10;78.00;;;;;;4985665;28;20033;-80
2022/08/03 03:31:11;;;;;;;2.75;1.30;;;23.10;77.80;;;;;;5002421;28;20030;-80
2022/08/03 03:33:38;;;;;;;1.20;1.10;;;23.10;77.80;;;;;;4980797;28;20030;-80
2022/08/03 03:36:05;;;;;;;1.70;1.50;;;23.10;77.80;;;;;;4989536;28;20033;-80
2022/08/03 03:38:31;;;;;;;1.48;1.15;;;23.10;77.70;;;;;;4980586;28;20049;-80
2022/08/03 03:40:58;;;;;;;1.33;0.93;;;23.10;77.70;;;;;;4991817;28;20385;-80
2022/08/03 03:43:24;;;;;;;1.10;1.00;;;23.00;77.60;;;;;;4986522;28;20637;-80
2022/08/03 03:45:51;;;;;;;1.20;1.10;;;23.00;77.50;;;;;;4997379;28;20030;-80
2022/08/03 03:48:18;;;;;;;1.02;0.93;;;23.10;77.60;;;;;;4989894;28;20045;-80
2022/08/03 03:50:44;;;;;;;0.88;0.88;;;23.10;77.70;;;;;;4993199;28;20033;-80
2022/08/03 03:53:13;;;;;;;1.55;1.20;;;23.00;77.50;;;;;;4989159;28;20114;-80
2022/08/03 03:55:40;;;;;;;1.27;1.00;;;23.10;77.50;;;;;;5000009;28;20026;-80
2022/08/03 03:58:06;;;;;;;1.10;1.00;;;23.00;77.50;;;;;;4992461;28;20050;-80
2022/08/03 04:00:32;;;;;;;0.90;0.90;;;23.00;77.50;;;;;;4992928;28;20502;-80
2022/08/03 04:02:58;;;;;;;0.90;0.90;;;23.00;77.50;;;;;;4992624;28;20058;-80
2022/08/03 04:11:16;;;;;;;1.08;0.90;;;23.00;78.70;;;;;;4989471;28;20025;-80
2022/08/03 04:13:45;;;;;;;1.05;0.95;;;23.00;80.00;;;;;;4993727;28;20521;-80
2022/08/03 04:16:15;;;;;;;1.33;1.23;;;22.90;80.90;;;;;;4986667;28;20041;-80
2022/08/03 04:18:42;;;;;;;1.15;1.05;;;22.90;81.30;;;;;;4993016;28;20029;-80
2022/08/03 04:21:11;;;;;;;1.92;1.42;;;22.80;81.60;;;;;;4993331;28;20098;-80
2022/08/03 04:23:41;;;;;;;1.23;1.13;;;22.80;82.00;;;;;;4993916;28;20022;-80
2022/08/03 04:26:10;;;;;;;1.20;1.10;;;22.70;82.10;;;;;;4992556;28;20390;-80
2022/08/03 04:28:43;;;;;;;1.50;1.40;;;22.70;82.40;;;;;;4999636;28;20057;-81
2022/08/03 04:31:09;;;;;;;0.93;0.90;;;22.70;82.50;;;;;;4993364;28;20040;-80
2022/08/03 04:33:38;;;;;;;2.65;1.25;;;22.60;82.80;;;;;;4996225;28;20509;-80
2022/08/03 04:36:06;;;;;;;1.30;1.20;;;22.60;82.80;;;;;;4999159;28;20117;-80
2022/08/03 04:38:56;;;;;;;1.48;1.00;;;22.60;82.90;;;;;;4990454;28;20036;-80
2022/08/03 04:41:25;;;;;;;1.55;1.45;;;22.50;82.90;;;;;;4974904;28;20027;-80
2022/08/03 04:43:56;;;;;;;1.40;1.30;;;22.50;83.00;;;;;;4997094;28;20097;-80
2022/08/03 04:46:27;;;;;;;1.35;1.20;;;22.50;83.00;;;;;;4994477;28;20514;-80
2022/08/03 04:48:54;;;;;;;1.10;1.00;;;22.50;83.10;;;;;;4995196;28;20026;-80
2022/08/03 04:51:20;;;;;;;1.38;1.27;;;22.50;83.10;;;;;;4998244;28;20098;-80
2022/08/03 04:53:46;;;;;;;1.15;1.05;;;22.50;83.10;;;;;;5005472;28;20027;-80
2022/08/03 04:56:11;;;;;;;1.42;1.33;;;22.50;83.10;;;;;;4997232;28;20023;-80
2022/08/03 04:58:37;;;;;;;1.33;1.23;;;22.40;83.00;;;;;;4990745;28;20533;-80
2022/08/03 05:01:03;;;;;;;1.40;1.20;;;22.40;83.10;;;;;;4977923;28;20038;-80
2022/08/03 05:03:30;;;;;;;1.30;1.20;;;22.40;83.20;;;;;;4994669;28;20026;-80
2022/08/03 05:05:56;;;;;;;2.10;1.20;;;22.40;83.30;;;;;;4990761;28;20069;-80
2022/08/03 05:08:22;;;;;;;1.20;1.10;;;22.40;83.50;;;;;;4986474;28;20435;-80
2022/08/03 05:10:48;;;;;;;1.30;1.20;;;22.40;83.60;;;;;;4995958;28;20047;-80
2022/08/03 05:13:13;;;;;;;1.05;0.95;;;22.40;83.70;;;;;;4989781;28;21011;-80
2022/08/03 05:15:40;;;;;;;1.20;1.10;;;22.40;83.90;;;;;;4984580;28;20038;-80
2022/08/03 05:18:06;;;;;;;1.25;1.15;;;22.40;83.90;;;;;;5000670;28;20398;-80
2022/08/03 05:20:32;;;;;;;1.23;1.10;;;22.40;84.10;;;;;;5002568;28;20019;-80
2022/08/03 05:23:00;;;;;;;1.42;1.20;;;22.40;84.20;;;;;;4994818;28;20045;-80
2022/08/03 05:25:26;;;;;;;2.22;1.30;;;22.40;84.30;;;;;;4994162;28;20030;-80
2022/08/03 05:27:52;;;;;;;1.45;1.10;;;22.30;84.30;;;;;;4994400;28;20490;-80
2022/08/03 05:30:18;;;;;;;1.63;1.52;;;22.30;84.50;;;;;;4998135;28;20022;-80
2022/08/03 05:32:44;;;;;;;1.38;1.27;;;22.30;84.50;;;;;;4992962;28;20454;-80
2022/08/03 05:35:10;;;;;;;1.20;1.10;;;22.30;84.60;;;;;;4994086;28;20113;-79
2022/08/03 05:37:36;;;;;;;3.40;1.40;;;22.30;84.70;;;;;;4988473;28;20030;-79
2022/08/03 05:40:02;;;;;;;1.00;0.90;;;22.30;84.80;;;;;;4994219;28;20037;-79
2022/08/03 05:42:28;;;;;;;1.45;1.35;;;22.30;85.00;;;;;;4995034;28;20106;-79
2022/08/03 05:44:54;;;;;;;1.27;1.17;;;22.30;85.00;;;;;;4994485;28;20054;-79
2022/08/03 05:47:20;;;;;;;1.77;1.50;;;22.30;85.40;;;;;;4994657;28;20034;-79
2022/08/03 05:49:46;;;;;;;1.67;1.40;;;22.30;85.30;;;;;;4996001;28;20502;-79
2022/08/03 05:52:11;;;;;;;1.45;1.35;;;22.30;85.50;;;;;;4998994;28;20446;-79
2022/08/03 05:54:37;;;;;;;2.63;1.50;;;22.30;85.50;;;;;;4998962;28;20552;-79
2022/08/03 05:57:03;;;;;;;1.52;1.42;;;22.30;85.60;;;;;;5005385;28;20464;-79
2022/08/03 05:59:29;;;;;;;1.38;1.27;;;22.30;85.60;;;;;;4995291;28;20034;-79
2022/08/03 06:01:54;;;;;;;2.38;1.48;;;22.40;85.80;;;;;;4996521;28;20037;-79
2022/08/03 06:04:20;;;;;;;1.50;1.40;;;22.30;85.80;;;;;;4996537;28;20030;-79
2022/08/03 06:06:47;;;;;;;1.27;1.15;;;22.30;85.80;;;;;;4996047;28;20026;-80
2022/08/03 06:09:14;;;;;;;1.40;1.30;;;22.30;85.90;;;;;;4991832;28;20026;-80
2022/08/03 06:11:40;;;;;;;3.08;2.35;;;22.30;85.90;;;;;;4998744;28;20085;-83
2022/08/03 06:14:06;;;;;;;2.63;2.42;;;22.40;87.90;;;;;;5004325;28;20035;-82
2022/08/03 06:16:32;;;;;;;8.70;2.72;;;22.40;89.70;;;;;;5000246;28;20491;-81
2022/08/03 06:18:58;;;;;;;11.82;3.38;;;22.50;90.90;;;;;;5002727;28;20027;-81
2022/08/03 06:21:24;;;;;;;12.43;4.13;;;22.70;91.60;;;;;;5002230;28;20080;-82
2022/08/03 06:23:50;;;;;;;15.77;4.05;;;22.80;91.40;;;;;;5000008;28;20463;-82
2022/08/03 06:26:16;;;;;;;16.75;3.60;;;22.90;91.50;;;;;;5004537;28;20033;-82
2022/08/03 06:28:44;;;;;;;7.45;2.55;;;23.00;91.20;;;;;;5004418;28;20137;-81
2022/08/03 06:31:10;;;;;;;15.63;3.63;;;23.00;91.30;;;;;;5001194;28;20037;-82
2022/08/03 06:33:36;;;;;;;12.10;3.90;;;23.00;91.20;;;;;;5000797;28;20085;-80
2022/08/03 06:36:02;;;;;;;8.70;3.85;;;23.10;91.00;;;;;;4992240;28;20026;-80
2022/08/03 06:38:28;;;;;;;10.75;3.08;;;23.20;91.40;;;;;;4992974;28;20026;-82
2022/08/03 06:40:54;;;;;;;10.52;3.33;;;23.10;90.90;;;;;;4995778;28;20030;-82
2022/08/03 06:43:19;;;;;;;12.48;3.97;;;23.20;90.70;;;;;;4995881;28;20026;-81
2022/08/03 06:45:45;;;;;;;6.20;3.75;;;23.30;90.70;;;;;;4989882;28;20118;-83
2022/08/03 06:48:11;;;;;;;4.68;3.17;;;23.40;91.00;;;;;;4992622;28;20518;-82
2022/08/03 06:50:40;;;;;;;6.55;3.70;;;23.50;90.70;;;;;;4993665;28;20019;-81
2022/08/03 06:53:07;;;;;;;18.55;4.60;;;23.60;90.50;;;;;;4993336;28;20030;-81
2022/08/03 06:55:33;;;;;;;8.35;3.92;;;23.50;90.50;;;;;;4995970;28;20030;-81
2022/08/03 06:57:59;;;;;;;17.00;4.88;;;23.50;90.60;;;;;;4993208;28;20031;-81
2022/08/03 07:00:25;;;;;;;11.95;5.50;;;23.40;90.60;;;;;;4976524;28;20450;-81
2022/08/03 07:02:51;;;;;;;11.75;5.10;;;23.40;90.80;;;;;;4990138;28;20070;-81
2022/08/03 07:05:17;;;;;;;13.48;4.43;;;23.40;90.80;;;;;;5001493;28;20022;-81
2022/08/03 07:07:43;;;;;;;5.45;3.63;;;23.40;91.20;;;;;;5006786;28;20034;-81
2022/08/03 07:10:10;;;;;;;9.57;5.55;;;23.40;90.90;;;;;;5004287;28;20034;-81
2022/08/03 07:12:37;;;;;;;23.95;4.60;;;23.40;90.60;;;;;;4992664;28;20032;-81
2022/08/03 07:15:04;;;;;;;9.98;4.68;;;23.50;90.70;;;;;;4995752;28;20138;-81
2022/08/03 07:17:35;;;;;;;6.75;4.50;;;23.60;90.60;;;;;;4990447;28;20032;-81
2022/08/03 07:20:05;;;;;;;10.00;3.58;;;23.60;90.60;;;;;;4992230;28;20123;-81
2022/08/03 07:22:32;;;;;;;8.65;3.47;;;23.70;90.80;;;;;;4985574;28;20384;-81
2022/08/03 07:24:58;;;;;;;8.90;3.88;;;23.70;90.80;;;;;;4988032;28;20070;-80
2022/08/03 07:27:25;;;;;;;15.02;4.20;;;23.70;90.90;;;;;;4995104;28;20030;-81
2022/08/03 07:29:51;;;;;;;7.35;3.58;;;23.70;90.80;;;;;;5000384;28;20363;-81
2022/08/03 07:32:17;;;;;;;9.52;3.03;;;23.70;90.60;;;;;;4994614;28;20032;-80
2022/08/03 07:34:43;;;;;;;6.40;3.60;;;23.70;90.90;;;;;;4998941;28;20034;-80
2022/08/03 07:37:09;;;;;;;6.38;3.28;;;23.70;90.80;;;;;;4995144;28;20038;-81
2022/08/03 07:39:34;;;;;;;14.52;3.58;;;23.70;91.10;;;;;;4994970;28;20129;-81
2022/08/03 07:42:00;;;;;;;11.18;6.82;;;23.90;92.00;;;;;;4998259;28;20117;-75
2022/08/03 07:44:26;;;;;;;17.25;6.05;;;24.00;91.30;;;;;;5003316;28;20088;-75
2022/08/03 07:46:52;;;;;;;17.42;5.97;;;24.10;90.70;;;;;;4994494;28;20026;-76
2022/08/03 07:49:18;;;;;;;11.63;5.50;;;24.10;90.50;;;;;;4983641;28;20072;-75
2022/08/03 07:51:43;;;;;;;12.27;5.10;;;24.00;90.40;;;;;;4991347;28;20066;-75
2022/08/03 07:54:09;;;;;;;10.60;5.00;;;24.00;90.40;;;;;;4994037;28;20113;-75
2022/08/03 07:56:36;;;;;;;12.30;5.45;;;24.00;90.30;;;;;;4997103;28;20092;-75
2022/08/03 07:59:02;;;;;;;7.05;4.45;;;23.90;90.20;;;;;;4988149;28;20033;-75
2022/08/03 08:01:28;;;;;;;10.73;4.60;;;23.90;90.20;;;;;;4983284;28;20046;-75
2022/08/03 08:03:54;;;;;;;9.05;4.75;;;23.90;90.20;;;;;;4984013;28;20030;-75
2022/08/03 08:06:20;;;;;;;9.80;4.38;;;23.80;90.10;;;;;;4990359;28;20041;-76
2022/08/03 08:08:46;;;;;;;13.35;3.90;;;23.80;90.10;;;;;;4990398;28;20019;-76
2022/08/03 08:11:12;;;;;;;7.07;4.35;;;23.80;90.10;;;;;;4993495;28;20029;-75
2022/08/03 08:13:38;;;;;;;4.68;4.20;;;23.70;90.10;;;;;;4991735;28;20136;-76
2022/08/03 08:16:04;;;;;;;8.77;4.28;;;23.70;90.10;;;;;;4989532;28;20029;-76
2022/08/03 08:18:30;;;;;;;4.43;3.53;;;23.70;90.10;;;;;;4995088;28;20023;-75
2022/08/03 08:20:56;;;;;;;4.38;3.80;;;23.70;90.10;;;;;;4985132;28;20248;-75
2022/08/03 08:23:22;;;;;;;3.95;3.42;;;23.60;90.00;;;;;;4991190;28;20212;-76
2022/08/03 08:25:50;;;;;;;7.70;3.92;;;23.60;90.10;;;;;;4990440;28;20026;-75
2022/08/03 08:28:20;;;;;;;4.43;3.53;;;23.60;90.00;;;;;;4984188;28;20026;-75
2022/08/03 08:30:47;;;;;;;3.80;3.40;;;23.50;90.00;;;;;;4991395;28;20030;-75
2022/08/03 08:33:13;;;;;;;6.57;3.22;;;23.50;90.00;;;;;;4984712;28;20446;-76
2022/08/03 08:35:39;;;;;;;7.88;3.50;;;23.50;90.10;;;;;;4994342;28;20045;-76
2022/08/03 08:38:04;;;;;;;4.75;3.33;;;23.50;90.00;;;;;;4990480;28;20030;-75
2022/08/03 08:40:30;;;;;;;6.43;3.30;;;23.50;90.10;;;;;;4999797;28;20141;-75
2022/08/03 08:42:56;;;;;;;4.80;2.83;;;23.50;90.10;;;;;;4996259;28;20031;-76
2022/08/03 08:45:22;;;;;;;4.57;3.35;;;23.50;90.10;;;;;;4994940;28;20029;-76
2022/08/03 08:47:49;;;;;;;4.78;3.35;;;23.40;90.40;;;;;;4980845;28;20682;-75
2022/08/03 08:50:20;;;;;;;5.28;2.92;;;23.40;90.10;;;;;;4989526;28;20019;-75
2022/08/03 08:52:48;;;;;;;4.78;3.85;;;23.40;90.10;;;;;;4983624;28;20031;-76
2022/08/03 08:55:19;;;;;;;7.43;2.88;;;23.40;90.10;;;;;;4991678;28;20079;-75
2022/08/03 08:57:52;;;;;;;4.32;3.38;;;23.40;90.10;;;;;;4991769;28;20509;-75
2022/08/03 09:00:18;;;;;;;4.25;3.50;;;23.40;90.10;;;;;;4992201;28;20095;-75
2022/08/03 09:02:45;;;;;;;5.60;3.08;;;23.40;90.10;;;;;;4995782;28;20487;-76
2022/08/03 09:05:16;;;;;;;5.45;3.05;;;23.30;90.10;;;;;;4987326;28;20030;-75
2022/08/03 09:07:42;;;;;;;5.22;3.20;;;23.40;90.10;;;;;;5004663;28;20112;-75
2022/08/03 09:10:11;;;;;;;5.25;4.18;;;23.40;90.50;;;;;;4993710;28;20084;-76
2022/08/03 09:12:45;;;;;;;7.93;4.38;;;23.40;90.10;;;;;;4992721;28;20034;-75
2022/08/03 09:15:21;;;;;;;8.68;4.60;;;23.40;90.10;;;;;;4984375;28;20027;-76
2022/08/03 09:17:47;;;;;;;5.10;4.60;;;23.40;90.10;;;;;;4993636;28;20263;-75
2022/08/03 09:20:14;;;;;;;4.40;4.00;;;23.40;90.20;;;;;;4988484;28;20534;-75
2022/08/03 09:22:52;;;;;;;6.50;4.82;;;23.40;90.20;;;;;;4993893;28;20038;-75
2022/08/03 09:25:18;;;;;;;8.02;4.60;;;23.40;90.30;;;;;;4982569;28;20213;-76
2022/08/03 09:27:45;;;;;;;7.20;3.90;;;23.30;90.30;;;;;;4991966;28;20117;-76
2022/08/03 09:30:16;;;;;;;5.50;3.55;;;23.30;90.30;;;;;;4991156;28;20085;-76
2022/08/03 09:32:44;;;;;;;4.82;3.97;;;23.30;90.30;;;;;;4996379;28;20029;-76
2022/08/03 09:35:12;;;;;;;4.00;3.53;;;23.30;90.50;;;;;;4988987;28;20117;-76
2022/08/03 09:37:38;;;;;;;4.88;4.28;;;23.30;90.30;;;;;;4987530;28;20042;-75
2022/08/03 09:40:04;;;;;;;3.83;3.50;;;23.30;90.30;;;;;;4991286;28;20033;-76
2022/08/03 09:42:30;;;;;;;4.63;3.55;;;23.30;90.30;;;;;;4988680;28;20554;-76
2022/08/03 09:44:59;;;;;;;4.25;3.85;;;23.30;90.30;;;;;;4993410;28;20092;-75
2022/08/03 09:47:30;;;;;;;7.05;4.32;;;23.20;90.30;;;;;;4984728;28;20023;-76
2022/08/03 09:50:00;;;;;;;4.15;3.75;;;23.20;90.30;;;;;;4989316;28;20058;-75
2022/08/03 09:52:38;;;;;;;3.58;3.28;;;23.20;90.20;;;;;;4985077;28;20022;-75
2022/08/03 09:55:12;;;;;;;5.40;3.67;;;23.20;90.30;;;;;;4978159;28;20471;-76
2022/08/03 09:57:39;;;;;;;3.55;3.05;;;23.20;90.20;;;;;;4989007;28;20372;-76
2022/08/03 10:00:13;;;;;;;3.15;2.80;;;23.20;90.30;;;;;;4988428;28;20030;-75
2022/08/03 10:02:40;;;;;;;4.32;3.80;;;23.20;90.30;;;;;;4986522;28;20612;-76
2022/08/03 10:05:07;;;;;;;4.07;3.20;;;23.20;90.30;;;;;;4997591;28;20054;-75
2022/08/03 10:07:45;;;;;;;3.85;3.15;;;23.20;90.30;;;;;;4986822;28;20460;-75
2022/08/03 10:10:11;;;;;;;5.50;3.17;;;23.20;90.30;;;;;;4973558;28;20557;-75
2022/08/03 10:12:41;;;;;;;4.13;3.63;;;23.20;90.30;;;;;;4974532;28;21122;-75
2022/08/03 10:15:09;;;;;;;3.70;3.10;;;23.20;90.30;;;;;;4981853;28;20027;-75
2022/08/03 10:17:35;;;;;;;3.92;3.42;;;23.10;90.30;;;;;;4982765;28;20514;-76
2022/08/03 10:20:03;;;;;;;4.07;3.55;;;23.20;90.30;;;;;;4987433;28;20062;-76
2022/08/03 10:22:34;;;;;;;3.95;3.10;;;23.10;90.30;;;;;;4997627;28;20216;-75
2022/08/03 10:25:14;;;;;;;5.40;3.10;;;23.10;90.30;;;;;;4986407;28;20034;-76
2022/08/03 10:27:41;;;;;;;5.68;3.53;;;23.10;90.30;;;;;;4995119;28;20025;-75
2022/08/03 10:30:09;;;;;;;3.92;3.58;;;23.20;90.30;;;;;;4981572;28;20027;-76
2022/08/03 10:32:48;;;;;;;4.03;3.42;;;23.10;90.30;;;;;;5004737;28;20089;-76
2022/08/03 10:35:19;;;;;;;2.97;2.67;;;23.10;90.30;;;;;;4992680;28;20418;-76
2022/08/03 10:37:54;;;;;;;3.63;3.15;;;23.10;90.30;;;;;;4996053;28;20035;-76
2022/08/03 10:40:22;;;;;;;3.72;3.25;;;23.10;90.30;;;;;;4986720;28;20034;-76
2022/08/03 10:42:51;;;;;;;5.60;3.08;;;23.10;90.30;;;;;;4993990;28;20509;-75
2022/08/03 10:45:19;;;;;;;3.97;2.83;;;23.10;90.30;;;;;;4984301;28;20049;-75
2022/08/03 10:47:47;;;;;;;4.65;3.35;;;23.10;90.30;;;;;;4994957;28;20026;-76
2022/08/03 10:50:14;;;;;;;3.75;2.83;;;23.10;90.30;;;;;;5001490;28;20034;-76
2022/08/03 10:52:54;;;;;;;2.95;2.67;;;23.10;90.30;;;;;;4990686;28;20026;-76
2022/08/03 10:58:39;;;;;;;4.00;3.60;;;23.10;90.30;;;;;;4997068;28;20049;-76
2022/08/03 11:01:10;;;;;;;4.28;3.30;;;23.10;90.30;;;;;;4998150;28;20294;-76
2022/08/03 11:04:02;;;;;;;3.88;3.47;;;23.10;90.30;;;;;;5000245;28;20030;-76
2022/08/03 11:06:28;;;;;;;3.28;2.83;;;23.10;90.30;;;;;;4988269;28;20484;-76
2022/08/03 11:09:13;;;;;;;3.28;2.97;;;23.10;90.30;;;;;;4994476;28;20048;-76
2022/08/03 11:11:41;;;;;;;3.35;3.05;;;23.10;90.30;;;;;;4984443;28;20129;-76
2022/08/03 11:14:17;;;;;;;3.72;3.10;;;23.10;90.30;;;;;;4997669;28;20077;-76
2022/08/03 11:16:49;;;;;;;3.38;3.03;;;23.10;90.30;;;;;;4981507;28;20499;-76
2022/08/03 11:19:18;;;;;;;3.72;3.25;;;23.10;90.30;;;;;;4984213;28;20035;-76
2022/08/03 11:21:47;;;;;;;4.22;3.28;;;23.10;90.30;;;;;;4988521;28;20044;-75
2022/08/03 11:24:35;;;;;;;4.15;2.80;;;23.10;90.30;;;;;;4988314;28;20046;-76
2022/08/03 11:27:13;;;;;;;2.95;2.65;;;23.10;90.30;;;;;;4985794;28;20023;-76
2022/08/03 11:30:08;;;;;;;3.10;2.80;;;23.10;90.30;;;;;;4978028;28;20618;-77
2022/08/03 11:32:41;;;;;;;3.88;2.80;;;23.10;90.30;;;;;;4976956;28;20063;-76
2022/08/03 11:35:22;;;;;;;;;;;23.10;90.30;;;;;;4997489;28;20438;-76
2022/08/03 11:38:00;;;;;;;3.05;2.85;;;23.10;90.30;;;;;;4996586;28;19921;-75
2022/08/03 11:40:41;;;;;;;3.60;3.15;;;23.10;90.30;;;;;;5004509;28;20030;-75
2022/08/03 11:43:30;;;;;;;3.88;3.35;;;23.10;90.60;;;;;;4993760;28;20081;-76
2022/08/03 11:45:58;;;;;;;3.40;3.10;;;23.10;90.30;;;;;;5001543;28;20109;-76
2022/08/03 11:48:43;;;;;;;4.18;3.17;;;23.10;90.30;;;;;;4987036;28;20026;-76
2022/08/03 11:51:27;;;;;;;3.78;3.22;;;23.10;90.30;;;;;;4983221;28;20034;-76
2022/08/03 11:53:53;;;;;;;3.15;2.85;;;23.10;90.30;;;;;;4995784;28;20030;-76
2022/08/03 11:56:19;;;;;;;3.83;3.10;;;23.10;90.30;;;;;;4995989;28;20034;-75
2022/08/03 11:58:52;;;;;;;6.25;2.63;;;23.10;90.30;;;;;;4987997;28;20121;-76
2022/08/03 12:01:19;;;;;;;3.22;2.90;;;23.10;90.30;;;;;;4983304;28;20560;-75
2022/08/03 12:03:45;;;;;;;5.20;3.17;;;23.10;90.30;;;;;;4987331;28;20157;-76
2022/08/03 12:06:12;;;;;;;4.00;3.15;;;23.10;90.30;;;;;;4988333;28;20117;-76
2022/08/03 12:08:43;;;;;;;3.00;2.70;;;23.10;90.30;;;;;;4988300;28;20033;-76
2022/08/03 12:11:11;;;;;;;3.15;2.83;;;23.10;90.30;;;;;;4983625;28;20030;-76
2022/08/03 12:13:42;;;;;;;4.45;3.42;;;23.10;90.40;;;;;;4990425;28;20030;-76
2022/08/03 12:16:08;;;;;;;3.75;3.35;;;23.10;90.40;;;;;;4986808;28;20062;-76
2022/08/03 12:18:34;;;;;;;5.32;2.72;;;23.10;90.40;;;;;;4990261;28;20108;-75
2022/08/03 12:21:06;;;;;;;3.10;2.85;;;23.10;90.40;;;;;;4986722;28;20089;-76
2022/08/03 12:23:34;;;;;;;3.00;2.70;;;23.10;90.40;;;;;;4986954;28;20095;-76
2022/08/03 12:26:08;;;;;;;3.33;2.88;;;23.10;90.40;;;;;;4985438;28;20033;-76
2022/08/03 12:28:35;;;;;;;3.80;2.97;;;23.20;90.40;;;;;;4989805;28;20117;-76
2022/08/03 12:31:05;;;;;;;3.65;3.10;;;23.10;90.40;;;;;;4988748;28;20030;-75
2022/08/03 12:33:31;;;;;;;4.50;2.97;;;23.20;90.40;;;;;;4991046;28;21524;-76
2022/08/03 12:36:10;;;;;;;3.42;3.13;;;23.10;90.40;;;;;;4990523;28;20034;-76
2022/08/03 12:38:38;;;;;;;3.80;2.55;;;23.20;90.40;;;;;;4990219;28;20117;-75
2022/08/03 12:41:07;;;;;;;3.00;2.70;;;23.10;90.40;;;;;;4995270;28;20114;-76
2022/08/03 12:43:33;;;;;;;3.83;3.00;;;23.20;90.40;;;;;;4992644;28;20037;-76
2022/08/03 12:46:16;;;;;;;3.70;2.78;;;23.20;90.70;;;;;;4988504;28;20066;-75
2022/08/03 12:49:03;;;;;;;3.38;3.08;;;23.10;90.30;;;;;;4992265;28;20018;-76
2022/08/03 12:51:32;;;;;;;3.25;2.55;;;23.10;90.40;;;;;;4989528;28;20026;-76
2022/08/03 12:53:57;;;;;;;3.55;2.75;;;23.20;90.40;;;;;;4986576;28;20375;-76
2022/08/03 12:56:24;;;;;;;3.67;3.22;;;23.20;90.40;;;;;;4986014;28;20030;-75
2022/08/03 12:58:50;;;;;;;3.33;3.00;;;23.20;90.40;;;;;;4987200;28;20301;-75
2022/08/03 13:01:16;;;;;;;3.33;3.03;;;23.20;90.40;;;;;;4991915;28;20030;-75
2022/08/03 13:03:44;;;;;;;3.28;2.97;;;23.20;90.40;;;;;;4998546;28;20105;-76